Time;durP1;ratioP1;P1;durP2;ratioP2;P2;SDS_P1;SDS_P2;PMS_P1;PMS_P2;Temp;Humidity;BMP_temperature;BMP_pressure;BME280_temperature;BME280_humidity;BME280_pressure;Samples;Min_cycle;Max_cycle;Signal;HPM_P1;HPM_P2
2022/04/26 03:36:41;;;;;;;8.05;3.58;;;8.70;93.80;;;;;;5068908;28;20031;-59
2022/04/26 03:39:07;;;;;;;4.93;3.05;;;8.60;93.90;;;;;;5074391;28;20037;-59
2022/04/26 03:41:33;;;;;;;4.05;3.15;;;8.70;93.90;;;;;;5074568;28;20407;-59
2022/04/26 03:43:59;;;;;;;4.70;3.17;;;8.70;93.90;;;;;;5073294;28;20565;-59
2022/04/26 03:46:25;;;;;;;6.97;3.70;;;8.70;94.30;;;;;;5071342;28;20125;-59
2022/04/26 03:48:51;;;;;;;6.45;3.60;;;8.70;94.10;;;;;;5069532;28;20146;-59
2022/04/26 03:51:17;;;;;;;4.90;2.75;;;8.60;94.20;;;;;;5071408;28;20038;-59
2022/04/26 03:53:42;;;;;;;3.65;2.90;;;8.60;94.10;;;;;;5073671;28;20090;-59
2022/04/26 03:56:08;;;;;;;4.15;2.55;;;8.70;94.10;;;;;;5068350;28;20090;-59
2022/04/26 03:58:34;;;;;;;6.07;3.28;;;8.70;94.10;;;;;;5069483;28;20037;-59
2022/04/26 04:01:00;;;;;;;6.75;3.40;;;8.70;94.20;;;;;;5073763;28;20042;-59
2022/04/26 04:03:26;;;;;;;4.93;3.45;;;8.60;94.20;;;;;;5069546;28;20040;-59
2022/04/26 04:05:52;;;;;;;4.75;3.10;;;8.60;94.20;;;;;;5065232;28;20028;-59
2022/04/26 04:08:18;;;;;;;6.63;3.83;;;8.70;94.30;;;;;;5073573;28;20099;-59
2022/04/26 04:10:44;;;;;;;5.47;3.40;;;8.60;94.40;;;;;;5070864;28;20048;-59
2022/04/26 04:13:10;;;;;;;6.43;3.17;;;8.60;94.50;;;;;;5073965;28;20024;-59
2022/04/26 04:15:36;;;;;;;7.43;3.83;;;8.60;94.60;;;;;;5067998;28;20601;-59
2022/04/26 04:18:01;;;;;;;6.22;4.18;;;8.60;94.70;;;;;;5070502;28;20076;-60
2022/04/26 04:20:29;;;;;;;8.07;3.95;;;8.60;94.90;;;;;;5067933;28;20059;-59
2022/04/26 04:22:55;;;;;;;6.20;4.13;;;8.50;95.00;;;;;;5065141;28;20472;-59
2022/04/26 04:25:21;;;;;;;4.00;3.42;;;8.50;95.10;;;;;;5070490;28;20025;-59
2022/04/26 04:27:47;;;;;;;8.00;4.30;;;8.50;95.20;;;;;;5073451;28;20464;-59
2022/04/26 04:30:13;;;;;;;9.50;3.50;;;8.50;95.30;;;;;;5076242;28;20035;-59
2022/04/26 04:32:39;;;;;;;8.40;4.38;;;8.50;95.40;;;;;;5073044;28;20028;-59
2022/04/26 04:35:05;;;;;;;5.97;4.40;;;8.50;95.50;;;;;;5075883;28;20024;-60
2022/04/26 04:37:31;;;;;;;5.80;4.35;;;8.50;95.60;;;;;;5070152;28;20162;-60
2022/04/26 04:39:56;;;;;;;5.53;4.18;;;8.50;95.70;;;;;;5064668;28;20123;-59
2022/04/26 04:42:22;;;;;;;6.38;4.32;;;8.50;95.90;;;;;;5069620;28;20021;-60
2022/04/26 04:44:48;;;;;;;6.65;4.30;;;8.50;95.90;;;;;;5070228;28;20467;-59
2022/04/26 04:47:13;;;;;;;7.20;3.97;;;8.50;96.00;;;;;;5061737;28;20021;-59
2022/04/26 04:49:39;;;;;;;4.82;3.50;;;8.50;96.10;;;;;;5070081;28;20035;-60
2022/04/26 04:52:05;;;;;;;8.30;4.32;;;8.50;96.10;;;;;;5073126;28;20024;-59
2022/04/26 04:54:30;;;;;;;8.38;4.63;;;8.50;96.10;;;;;;5065836;28;20032;-59
2022/04/26 04:56:56;;;;;;;6.53;3.58;;;8.50;96.20;;;;;;5067172;28;20025;-59
2022/04/26 04:59:22;;;;;;;6.13;4.18;;;8.50;96.20;;;;;;5078614;28;20396;-59
2022/04/26 05:01:47;;;;;;;6.97;4.68;;;8.50;96.20;;;;;;5075477;28;20028;-59
2022/04/26 05:04:13;;;;;;;7.72;4.85;;;8.50;96.30;;;;;;5069829;28;20403;-59
2022/04/26 05:06:38;;;;;;;6.32;4.25;;;8.50;96.40;;;;;;5072454;28;20012;-59
2022/04/26 05:09:04;;;;;;;6.00;3.97;;;8.50;96.40;;;;;;5070256;28;20103;-59
2022/04/26 05:11:29;;;;;;;7.45;5.10;;;8.50;96.50;;;;;;5072343;28;20507;-59
2022/04/26 05:13:55;;;;;;;4.43;3.50;;;8.60;96.50;;;;;;5070945;28;20036;-60
2022/04/26 05:16:20;;;;;;;7.00;4.32;;;8.60;96.50;;;;;;5069672;28;20036;-59
2022/04/26 05:18:46;;;;;;;7.53;4.90;;;8.60;96.60;;;;;;5069164;28;20061;-60
2022/04/26 05:21:15;;;;;;;9.68;5.35;;;8.60;96.60;;;;;;5066963;28;20032;-60
2022/04/26 05:26:25;;;;;;;5.90;4.82;;;8.70;96.80;;;;;;5061151;28;20069;-60
2022/04/26 05:28:51;;;;;;;6.35;4.90;;;8.60;96.80;;;;;;5063608;28;20029;-59
2022/04/26 05:31:17;;;;;;;7.55;4.50;;;8.60;96.90;;;;;;5069395;28;20028;-59
2022/04/26 05:33:42;;;;;;;6.68;5.03;;;8.70;96.90;;;;;;5069274;28;20031;-59
2022/04/26 05:36:08;;;;;;;9.05;5.00;;;8.70;97.00;;;;;;5067254;28;20035;-59
2022/04/26 05:38:34;;;;;;;6.57;5.18;;;8.70;97.10;;;;;;5063519;28;20020;-59
2022/04/26 05:41:00;;;;;;;7.90;5.60;;;8.70;97.10;;;;;;5068825;28;20481;-60
2022/04/26 05:43:25;;;;;;;7.32;5.50;;;8.70;97.20;;;;;;5069199;28;20017;-59
2022/04/26 05:45:51;;;;;;;10.85;5.70;;;8.70;97.20;;;;;;5071488;28;20480;-59
2022/04/26 05:48:17;;;;;;;11.77;6.50;;;8.70;97.30;;;;;;5065184;28;20476;-59
2022/04/26 05:50:42;;;;;;;9.52;6.47;;;8.70;97.40;;;;;;5068938;28;20021;-59
2022/04/26 05:53:08;;;;;;;12.80;7.63;;;8.70;97.40;;;;;;5071734;28;20533;-59
2022/04/26 05:55:34;;;;;;;10.43;6.88;;;8.80;97.50;;;;;;5068265;28;20035;-59
2022/04/26 05:57:59;;;;;;;10.27;7.13;;;8.80;97.60;;;;;;5071265;28;20043;-59
2022/04/26 06:00:25;;;;;;;8.57;6.93;;;8.80;97.50;;;;;;5068912;28;20492;-59
2022/04/26 06:02:51;;;;;;;9.82;6.57;;;8.80;97.50;;;;;;5068709;28;20028;-59
2022/04/26 06:05:16;;;;;;;11.88;7.15;;;8.80;97.60;;;;;;5071508;28;20040;-59
2022/04/26 06:07:42;;;;;;;11.90;7.07;;;8.80;97.60;;;;;;5068654;28;20054;-59
2022/04/26 06:10:08;;;;;;;9.07;7.68;;;8.90;97.90;;;;;;5059672;28;20498;-59
2022/04/26 06:12:34;;;;;;;11.48;7.95;;;8.90;97.60;;;;;;5065522;28;20043;-59
2022/04/26 06:15:00;;;;;;;8.80;6.82;;;8.90;97.60;;;;;;5061222;28;20024;-59
2022/04/26 06:17:27;;;;;;;13.27;8.43;;;8.90;97.60;;;;;;5064152;28;20040;-59
2022/04/26 06:19:52;;;;;;;10.85;7.82;;;9.00;97.80;;;;;;5068571;28;20396;-59
2022/04/26 06:22:18;;;;;;;10.55;7.47;;;9.00;97.40;;;;;;5071441;28;20476;-59
2022/04/26 06:24:44;;;;;;;12.80;7.93;;;9.10;97.40;;;;;;5051105;28;20049;-59
2022/04/26 06:27:10;;;;;;;11.10;7.90;;;9.10;97.40;;;;;;5061177;28;20016;-59
2022/04/26 06:29:35;;;;;;;14.57;7.80;;;9.10;97.30;;;;;;5060867;28;20108;-59
2022/04/26 06:32:02;;;;;;;15.20;8.88;;;9.10;97.30;;;;;;5071734;28;20052;-59
2022/04/26 06:34:28;;;;;;;15.15;8.23;;;9.20;97.30;;;;;;5068835;28;20021;-59
2022/04/26 06:36:54;;;;;;;10.73;7.07;;;9.20;97.10;;;;;;5072295;28;20112;-59
2022/04/26 06:39:20;;;;;;;14.70;7.82;;;9.30;97.00;;;;;;5072185;28;20496;-59
2022/04/26 06:41:46;;;;;;;9.43;6.65;;;9.30;96.80;;;;;;5072016;28;20029;-59
2022/04/26 06:44:12;;;;;;;14.20;7.38;;;9.40;96.70;;;;;;5070856;28;20017;-60
2022/04/26 06:46:38;;;;;;;9.90;6.97;;;9.40;96.60;;;;;;5068052;28;20029;-59
2022/04/26 06:49:03;;;;;;;11.05;7.32;;;9.50;96.50;;;;;;5072200;28;20362;-59
2022/04/26 06:51:35;;;;;;;12.02;6.53;;;9.60;96.40;;;;;;5072050;28;20163;-59
2022/04/26 06:54:01;;;;;;;8.32;5.93;;;9.60;96.30;;;;;;5071947;28;20028;-59
2022/04/26 06:56:26;;;;;;;10.43;6.40;;;9.80;96.20;;;;;;5064726;28;20032;-59
2022/04/26 06:58:52;;;;;;;12.90;6.75;;;9.80;96.10;;;;;;5066641;28;20060;-59
2022/04/26 07:01:17;;;;;;;9.13;6.10;;;10.00;95.90;;;;;;5050869;28;20033;-60
2022/04/26 07:03:43;;;;;;;11.82;6.30;;;10.00;95.80;;;;;;5056869;28;20064;-59
2022/04/26 07:06:08;;;;;;;7.88;5.40;;;10.10;95.80;;;;;;5072511;28;20063;-59
2022/04/26 07:08:33;;;;;;;8.95;5.80;;;10.20;95.30;;;;;;5067537;28;20021;-59
2022/04/26 07:10:59;;;;;;;10.50;5.88;;;10.30;95.00;;;;;;5063422;28;20535;-60
2022/04/26 07:13:24;;;;;;;12.20;6.10;;;10.30;94.70;;;;;;5071748;28;20032;-60
2022/04/26 07:15:50;;;;;;;10.43;5.45;;;10.40;94.40;;;;;;5065975;28;20025;-59
2022/04/26 07:18:16;;;;;;;7.47;5.60;;;10.50;94.20;;;;;;5061713;28;20061;-59
2022/04/26 07:20:44;;;;;;;8.13;4.75;;;10.60;93.90;;;;;;5069939;28;20606;-60
2022/04/26 07:23:11;;;;;;;8.27;5.13;;;10.60;93.80;;;;;;5063955;28;20541;-60
2022/04/26 07:25:37;;;;;;;9.02;4.47;;;10.70;93.60;;;;;;5069032;28;20060;-60
2022/04/26 07:28:03;;;;;;;7.75;5.22;;;10.80;93.50;;;;;;5069847;28;20484;-60
2022/04/26 07:30:34;;;;;;;7.68;4.65;;;10.80;93.10;;;;;;5068411;28;20028;-60
2022/04/26 07:35:49;;;;;;;8.98;4.95;;;11.10;92.80;;;;;;5066256;28;20078;-60
2022/04/26 07:38:14;;;;;;;10.52;5.18;;;11.00;92.50;;;;;;5069184;28;20036;-60
2022/04/26 07:40:41;;;;;;;7.70;5.03;;;11.10;92.20;;;;;;5067312;28;20385;-60
2022/04/26 07:43:07;;;;;;;9.07;5.00;;;11.20;92.00;;;;;;5070391;28;20511;-60
2022/04/26 07:45:36;;;;;;;5.88;4.30;;;11.20;91.70;;;;;;5070360;28;20108;-60
2022/04/26 07:48:05;;;;;;;8.68;4.40;;;11.30;91.70;;;;;;5077180;28;20106;-60
2022/04/26 07:50:31;;;;;;;7.53;4.13;;;11.30;91.60;;;;;;5094440;28;20032;-60
2022/04/26 07:52:57;;;;;;;6.15;3.75;;;11.40;91.30;;;;;;5091236;28;20028;-60
2022/04/26 07:55:22;;;;;;;5.30;3.38;;;11.50;90.80;;;;;;5074789;28;20392;-59
2022/04/26 07:57:48;;;;;;;5.60;3.88;;;11.50;90.20;;;;;;5073635;28;20021;-60
2022/04/26 08:00:16;;;;;;;8.57;3.85;;;11.60;90.00;;;;;;5075164;28;20036;-60
2022/04/26 08:02:41;;;;;;;6.32;3.45;;;11.60;89.40;;;;;;5074635;28;20020;-59
2022/04/26 08:05:07;;;;;;;6.40;3.28;;;11.70;89.30;;;;;;5074785;28;20490;-59
2022/04/26 08:07:34;;;;;;;7.18;3.88;;;11.80;89.10;;;;;;5074633;28;20099;-59
2022/04/26 08:09:59;;;;;;;8.65;3.97;;;11.80;88.30;;;;;;5074752;28;20031;-60
2022/04/26 08:12:25;;;;;;;9.05;3.83;;;11.90;88.10;;;;;;5074650;28;20024;-59
2022/04/26 08:14:51;;;;;;;7.55;3.45;;;11.90;87.80;;;;;;5074451;28;20032;-60
2022/04/26 08:17:16;;;;;;;6.13;3.78;;;12.00;87.90;;;;;;5071596;28;20484;-60
2022/04/26 08:19:42;;;;;;;8.85;3.28;;;12.00;87.60;;;;;;5067867;28;20025;-59
2022/04/26 08:22:08;;;;;;;5.00;2.63;;;12.00;87.00;;;;;;5069730;28;20482;-60
2022/04/26 08:27:25;;;;;;;7.10;2.70;;;12.20;86.00;;;;;;5070203;28;20121;-60
2022/04/26 08:29:54;;;;;;;5.25;2.50;;;12.30;86.00;;;;;;5073305;28;20432;-59
2022/04/26 08:32:20;;;;;;;;;;;12.50;85.80;;;;;;5074515;28;20020;-60
2022/04/26 08:34:46;;;;;;;4.82;2.60;;;12.70;85.90;;;;;;5074175;28;19913;-59
2022/04/26 08:37:12;;;;;;;3.88;2.70;;;12.80;85.50;;;;;;5072966;28;20032;-60
2022/04/26 08:39:37;;;;;;;7.57;3.63;;;12.90;85.00;;;;;;5072792;28;20028;-60
2022/04/26 08:42:04;;;;;;;5.22;2.92;;;13.00;83.40;;;;;;5072897;28;20044;-60
2022/04/26 08:44:30;;;;;;;5.40;2.45;;;13.00;82.20;;;;;;5074117;28;20040;-60
2022/04/26 08:52:27;;;;;;;4.97;3.10;;;13.20;77.90;;;;;;5073992;28;20035;-60
2022/04/26 08:54:53;;;;;;;7.70;3.05;;;13.30;77.40;;;;;;5073858;28;20025;-60
2022/04/26 08:57:19;;;;;;;3.65;2.63;;;13.30;76.30;;;;;;5073631;28;20036;-60
2022/04/26 08:59:52;;;;;;;3.45;2.15;;;13.30;75.00;;;;;;5073609;28;20024;-59
2022/04/26 09:02:19;;;;;;;4.22;2.42;;;13.40;75.00;;;;;;5073666;28;20044;-60
2022/04/26 09:04:46;;;;;;;5.80;2.72;;;13.40;74.30;;;;;;5073885;28;20027;-60
2022/04/26 09:07:26;;;;;;;3.78;2.15;;;13.50;73.90;;;;;;5073750;28;20067;-60
2022/04/26 09:10:02;;;;;;;;;;;13.60;73.80;;;;;;5073349;28;20093;-60
2022/04/26 09:12:28;;;;;;;3.35;2.05;;;13.70;73.10;;;;;;5070452;28;19905;-60
2022/04/26 09:14:54;;;;;;;5.50;2.30;;;13.70;71.90;;;;;;5066127;28;20023;-60
2022/04/26 09:17:20;;;;;;;7.63;2.80;;;13.70;71.20;;;;;;5069151;28;20037;-60
2022/04/26 09:19:55;;;;;;;3.10;1.85;;;13.90;71.30;;;;;;5071993;28;20387;-60
2022/04/26 09:22:22;;;;;;;4.53;2.03;;;13.90;71.30;;;;;;5073168;28;20024;-60
2022/04/26 09:24:56;;;;;;;4.13;1.90;;;13.90;70.40;;;;;;5073274;28;20059;-60
2022/04/26 09:27:23;;;;;;;4.43;1.88;;;14.10;70.40;;;;;;5072759;28;20074;-60
2022/04/26 09:29:48;;;;;;;5.43;2.70;;;14.10;70.50;;;;;;5072669;28;20081;-60
2022/04/26 09:32:14;;;;;;;4.00;2.70;;;14.10;69.30;;;;;;5072205;28;20041;-60
2022/04/26 09:34:40;;;;;;;4.70;1.95;;;14.10;68.60;;;;;;5064886;28;20025;-60
2022/04/26 09:37:06;;;;;;;4.75;2.17;;;14.10;68.50;;;;;;5072591;28;20442;-60
2022/04/26 09:39:32;;;;;;;4.15;1.98;;;14.20;68.20;;;;;;5063590;28;20520;-60
2022/04/26 09:41:57;;;;;;;3.65;1.88;;;14.40;68.10;;;;;;5069658;28;20051;-59
2022/04/26 09:44:33;;;;;;;4.30;2.40;;;14.50;68.50;;;;;;5071733;28;20527;-60
2022/04/26 09:46:59;;;;;;;2.88;1.80;;;14.70;66.90;;;;;;5053080;28;20024;-60
2022/04/26 09:49:26;;;;;;;5.50;2.30;;;14.70;66.80;;;;;;5064256;28;20045;-60
2022/04/26 09:51:58;;;;;;;4.10;2.22;;;14.80;66.40;;;;;;5070125;28;20017;-60
2022/04/26 09:54:24;;;;;;;3.88;1.65;;;14.90;65.60;;;;;;5064013;28;20049;-60
2022/04/26 09:56:50;;;;;;;3.92;1.80;;;14.90;64.90;;;;;;5069512;28;20067;-60
2022/04/26 09:59:28;;;;;;;4.07;1.63;;;15.00;65.50;;;;;;5064011;28;20087;-59
2022/04/26 10:01:58;;;;;;;3.28;1.60;;;15.30;63.90;;;;;;5067920;28;20020;-60
2022/04/26 10:04:26;;;;;;;4.32;1.70;;;15.40;63.00;;;;;;5067540;28;20074;-60
2022/04/26 10:07:00;;;;;;;4.95;2.58;;;15.40;61.60;;;;;;5069888;28;20027;-60
2022/04/26 10:09:27;;;;;;;3.40;1.77;;;15.50;60.60;;;;;;5069626;28;20487;-60
2022/04/26 10:11:57;;;;;;;5.15;2.05;;;15.50;60.50;;;;;;5070909;28;20027;-60
2022/04/26 10:14:24;;;;;;;3.33;1.70;;;15.60;59.60;;;;;;5070810;28;20039;-60
2022/04/26 10:16:50;;;;;;;3.78;1.55;;;15.70;60.30;;;;;;5071027;28;20032;-60
2022/04/26 10:19:16;;;;;;;2.85;1.35;;;15.90;60.10;;;;;;5068002;28;20386;-60
2022/04/26 10:21:41;;;;;;;5.15;1.92;;;16.10;60.20;;;;;;5064881;28;20065;-64
2022/04/26 10:24:17;;;;;;;3.78;2.30;;;16.40;58.50;;;;;;5067250;28;20027;-60
2022/04/26 10:26:43;;;;;;;2.33;1.60;;;16.60;57.20;;;;;;5070485;28;20028;-60
2022/04/26 10:29:09;;;;;;;2.80;1.50;;;16.60;56.90;;;;;;5071078;28;20031;-60
2022/04/26 10:31:38;;;;;;;4.03;1.60;;;16.80;56.80;;;;;;5072184;28;20032;-60
2022/04/26 10:34:16;;;;;;;3.53;1.58;;;17.00;56.00;;;;;;5071952;28;20095;-60
2022/04/26 10:36:43;;;;;;;4.10;1.75;;;17.10;55.90;;;;;;5072179;28;20020;-60
2022/04/26 10:39:12;;;;;;;3.20;1.50;;;17.10;56.10;;;;;;5070303;28;20025;-60
2022/04/26 10:41:39;;;;;;;3.40;1.40;;;17.40;56.00;;;;;;5067940;28;20119;-60
2022/04/26 10:44:13;;;;;;;3.00;1.55;;;17.60;55.60;;;;;;5070836;28;20465;-60
2022/04/26 10:46:43;;;;;;;3.45;1.40;;;18.00;55.60;;;;;;5070199;28;20716;-60
2022/04/26 10:49:24;;;;;;;;;;;18.30;55.60;;;;;;5069523;28;20032;-60
2022/04/26 10:51:53;;;;;;;4.60;2.25;;;18.40;55.20;;;;;;5064786;28;20340;-60
2022/04/26 10:55:07;;;;;;;5.13;1.80;;;18.50;54.50;;;;;;5067419;28;20036;-62
2022/04/26 10:57:35;;;;;;;3.88;1.85;;;18.80;54.60;;;;;;5059822;28;20040;-60
2022/04/26 11:00:05;;;;;;;2.67;2.08;;;19.00;53.90;;;;;;5069722;28;20028;-60
2022/04/26 11:02:39;;;;;;;4.03;1.63;;;18.90;53.20;;;;;;5064280;28;20027;-60
2022/04/26 11:05:16;;;;;;;4.35;2.15;;;19.10;53.80;;;;;;5065944;28;20012;-60
2022/04/26 11:07:47;;;;;;;4.43;2.10;;;19.20;53.70;;;;;;5071618;28;20039;-60
2022/04/26 11:10:15;;;;;;;4.00;1.67;;;19.10;53.40;;;;;;5070255;28;20028;-60
2022/04/26 11:12:41;;;;;;;3.22;2.00;;;19.00;53.60;;;;;;5061902;28;20024;-60
2022/04/26 11:15:09;;;;;;;3.25;1.58;;;18.90;53.90;;;;;;5070546;28;20024;-60
2022/04/26 11:17:35;;;;;;;5.15;1.50;;;18.90;53.80;;;;;;5071747;28;20067;-60
2022/04/26 11:20:17;;;;;;;2.75;1.80;;;19.10;53.70;;;;;;5071411;28;20105;-60
2022/04/26 11:22:51;;;;;;;4.55;1.40;;;19.40;52.70;;;;;;5070169;28;20048;-60
2022/04/26 11:28:11;;;;;;;3.03;1.60;;;19.90;50.70;;;;;;5070333;28;20032;-60
2022/04/26 11:30:42;;;;;;;4.47;2.35;;;20.10;50.50;;;;;;5071687;28;20029;-60
2022/04/26 11:33:28;;;;;;;2.42;2.00;;;20.30;49.80;;;;;;5071557;28;20029;-60
2022/04/26 11:36:01;;;;;;;5.15;1.88;;;20.00;49.60;;;;;;5070240;28;20392;-60
2022/04/26 11:38:27;;;;;;;5.13;2.90;;;19.90;49.60;;;;;;5071624;28;20025;-60
2022/04/26 11:41:00;;;;;;;3.35;2.10;;;19.90;50.00;;;;;;5071422;28;20499;-60
2022/04/26 11:43:27;;;;;;;4.35;1.92;;;19.80;50.00;;;;;;5071386;28;20017;-60
2022/04/26 11:45:56;;;;;;;4.97;2.03;;;19.90;50.20;;;;;;5070085;28;20511;-60
2022/04/26 11:48:29;;;;;;;3.83;1.55;;;20.00;49.80;;;;;;5067104;28;20029;-60
2022/04/26 11:50:57;;;;;;;3.17;1.40;;;20.20;49.90;;;;;;5060676;28;20109;-60
2022/04/26 11:53:29;;;;;;;3.95;2.20;;;20.60;49.90;;;;;;5061620;28;20052;-60
2022/04/26 11:55:56;;;;;;;2.60;1.48;;;20.80;48.40;;;;;;5074363;28;20020;-60
2022/04/26 11:58:22;;;;;;;5.18;2.05;;;21.00;48.00;;;;;;5067723;28;20477;-61
2022/04/26 12:00:56;;;;;;;3.75;2.20;;;21.20;47.80;;;;;;5070415;28;20035;-60
2022/04/26 12:03:49;;;;;;;7.85;2.85;;;21.30;47.60;;;;;;5056813;28;20067;-60
2022/04/26 12:06:17;;;;;;;7.20;2.28;;;21.20;47.10;;;;;;5054833;28;20025;-60
2022/04/26 12:08:44;;;;;;;4.15;2.00;;;21.30;47.40;;;;;;5054747;28;20034;-60
2022/04/26 12:11:13;;;;;;;4.22;1.95;;;21.40;46.70;;;;;;5058176;28;20040;-60
2022/04/26 12:13:39;;;;;;;3.22;1.95;;;21.50;46.70;;;;;;5072820;28;20033;-61
2022/04/26 12:16:19;;;;;;;2.72;2.00;;;21.60;46.40;;;;;;5067438;28;20362;-60
2022/04/26 12:18:55;;;;;;;4.03;2.08;;;21.80;46.20;;;;;;5072534;28;20570;-60
2022/04/26 12:21:22;;;;;;;4.38;2.30;;;21.70;45.60;;;;;;5071241;28;20037;-60
2022/04/26 12:24:07;;;;;;;4.47;1.75;;;21.80;45.40;;;;;;5072859;28;20383;-60
2022/04/26 12:26:33;;;;;;;3.97;1.67;;;22.00;45.70;;;;;;5065555;28;20502;-60
2022/04/26 12:28:58;;;;;;;4.05;1.67;;;22.20;45.50;;;;;;5071586;28;20017;-60
2022/04/26 12:31:29;;;;;;;3.20;1.63;;;22.30;45.30;;;;;;5072561;28;20021;-62
2022/04/26 12:34:15;;;;;;;3.35;1.75;;;22.30;45.00;;;;;;5071382;28;20029;-60
2022/04/26 12:37:04;;;;;;;4.35;2.70;;;22.00;44.60;;;;;;5066206;28;20032;-60
2022/04/26 12:39:38;;;;;;;2.00;1.50;;;21.90;44.60;;;;;;5070285;28;20103;-60
2022/04/26 12:42:04;;;;;;;2.38;1.65;;;22.00;44.60;;;;;;5071848;28;20021;-60
2022/04/26 12:44:30;;;;;;;3.25;1.88;;;22.20;44.40;;;;;;5071990;28;20067;-60
2022/04/26 12:52:47;;;;;;;3.00;1.23;;;22.50;43.50;;;;;;5074362;28;20494;-60
2022/04/26 12:55:14;;;;;;;2.97;1.67;;;22.90;43.50;;;;;;5073784;28;20032;-60
2022/04/26 12:57:53;;;;;;;3.25;1.25;;;23.20;42.60;;;;;;5073862;28;20040;-60
2022/04/26 13:00:23;;;;;;;1.83;1.20;;;23.40;42.40;;;;;;5073786;28;20251;-60
2022/04/26 13:02:51;;;;;;;3.75;1.60;;;23.60;42.50;;;;;;5073430;28;20025;-60
2022/04/26 13:05:17;;;;;;;3.92;1.63;;;23.90;41.60;;;;;;5073527;28;20384;-60
2022/04/26 13:07:46;;;;;;;2.35;1.20;;;23.80;41.00;;;;;;5073636;28;20081;-60
2022/04/26 13:10:12;;;;;;;2.50;1.67;;;23.80;41.50;;;;;;5073676;28;20016;-60
2022/04/26 13:12:38;;;;;;;5.40;1.63;;;24.00;41.00;;;;;;5072333;28;20503;-60
2022/04/26 13:15:05;;;;;;;3.78;1.63;;;23.80;40.80;;;;;;5073430;28;20020;-61
2022/04/26 13:17:30;;;;;;;2.78;1.80;;;23.80;40.80;;;;;;5073137;28;20045;-60
2022/04/26 13:19:56;;;;;;;4.78;1.92;;;23.80;40.70;;;;;;5069125;28;20056;-60
2022/04/26 13:22:22;;;;;;;3.20;1.73;;;23.80;40.70;;;;;;5071773;28;20469;-60
2022/04/26 13:24:49;;;;;;;2.63;1.40;;;23.80;40.80;;;;;;5070884;28;20020;-60
2022/04/26 13:27:16;;;;;;;4.03;1.52;;;23.90;40.50;;;;;;5068476;28;20017;-61
2022/04/26 13:29:41;;;;;;;3.88;1.98;;;23.90;40.20;;;;;;5065797;28;20023;-60
2022/04/26 13:32:07;;;;;;;2.83;1.58;;;23.80;40.10;;;;;;5066380;28;20025;-61
2022/04/26 13:34:33;;;;;;;3.78;1.45;;;23.70;40.60;;;;;;5072960;28;20113;-60
2022/04/26 13:36:59;;;;;;;2.63;1.60;;;23.80;40.90;;;;;;5073222;28;20102;-60
2022/04/26 13:39:24;;;;;;;3.25;1.60;;;24.00;41.00;;;;;;5072444;28;20211;-60
2022/04/26 13:41:50;;;;;;;3.83;1.63;;;24.20;40.30;;;;;;5068500;28;20028;-60
2022/04/26 13:44:19;;;;;;;2.42;1.50;;;24.20;40.20;;;;;;5071470;28;20028;-60
2022/04/26 13:46:47;;;;;;;;;;;24.20;40.20;;;;;;5069807;28;20016;-60
2022/04/26 13:49:13;;;;;;;3.95;1.80;;;24.00;39.40;;;;;;5067894;28;19905;-60
2022/04/26 13:51:38;;;;;;;3.60;1.38;;;23.90;39.80;;;;;;5070613;28;20020;-60
2022/04/26 13:54:04;;;;;;;2.05;1.30;;;24.00;40.80;;;;;;5071263;28;20031;-60
2022/04/26 13:56:30;;;;;;;4.72;1.65;;;24.00;39.80;;;;;;5070075;28;20024;-60
2022/04/26 13:58:55;;;;;;;2.70;1.80;;;23.90;39.80;;;;;;5067919;28;20097;-61
2022/04/26 14:01:23;;;;;;;2.58;1.40;;;24.10;39.60;;;;;;5071172;28;20491;-60
2022/04/26 14:03:49;;;;;;;2.42;1.30;;;24.10;39.40;;;;;;5069420;28;20017;-61
2022/04/26 14:06:18;;;;;;;2.30;1.50;;;24.30;39.30;;;;;;5066719;28;20091;-61
2022/04/26 14:08:49;;;;;;;2.33;1.23;;;24.40;39.10;;;;;;5067201;28;20036;-60
2022/04/26 14:11:17;;;;;;;2.15;1.13;;;24.60;39.40;;;;;;5069106;28;20043;-61
2022/04/26 14:21:55;;;;;;;2.30;1.23;;;24.20;38.80;;;;;;5070114;28;21678;-61
2022/04/26 14:24:21;;;;;;;2.60;1.33;;;24.10;39.50;;;;;;5066798;28;20049;-61
2022/04/26 14:26:46;;;;;;;3.40;1.33;;;24.30;39.50;;;;;;5069416;28;20498;-60
2022/04/26 14:29:13;;;;;;;3.55;1.40;;;24.20;39.30;;;;;;5065350;28;20074;-61
2022/04/26 14:31:38;;;;;;;1.55;1.23;;;24.10;39.40;;;;;;5069097;28;20021;-60
2022/04/26 14:34:04;;;;;;;3.58;1.15;;;24.10;39.50;;;;;;5068834;28;20027;-61
2022/04/26 14:36:30;;;;;;;3.70;1.67;;;24.20;39.40;;;;;;5070151;28;20032;-61
2022/04/26 14:38:55;;;;;;;7.53;2.13;;;24.30;39.20;;;;;;5069727;28;20029;-61
2022/04/26 14:41:21;;;;;;;3.90;1.70;;;24.20;39.10;;;;;;5061789;28;20048;-61
2022/04/26 14:43:46;;;;;;;2.72;1.38;;;24.00;39.20;;;;;;5070630;28;20524;-61
2022/04/26 14:46:12;;;;;;;1.65;1.10;;;24.00;39.60;;;;;;5071482;28;20020;-60
2022/04/26 14:48:38;;;;;;;3.03;1.40;;;23.80;39.60;;;;;;5070679;28;20108;-63
2022/04/26 14:51:04;;;;;;;2.67;1.25;;;23.50;39.50;;;;;;5064000;28;20480;-60
2022/04/26 14:53:30;;;;;;;2.38;1.42;;;23.30;39.70;;;;;;5063772;28;20020;-60
2022/04/26 14:55:58;;;;;;;2.72;1.20;;;23.10;39.90;;;;;;5069945;28;20027;-61
2022/04/26 14:58:23;;;;;;;2.75;1.80;;;23.00;40.20;;;;;;5070361;28;20384;-60
2022/04/26 15:00:49;;;;;;;4.05;1.48;;;22.90;40.30;;;;;;5069767;28;20025;-60
2022/04/26 15:03:14;;;;;;;2.80;1.33;;;22.70;40.40;;;;;;5070831;28;20021;-60
2022/04/26 15:05:40;;;;;;;3.10;1.50;;;22.30;40.70;;;;;;5071054;28;20025;-60
2022/04/26 15:10:50;;;;;;;3.03;1.40;;;22.30;41.20;;;;;;5070764;28;20166;-60
2022/04/26 15:18:43;;;;;;;3.47;1.25;;;21.90;41.90;;;;;;5071200;28;20098;-60
2022/04/26 15:21:09;;;;;;;3.05;1.48;;;22.00;41.90;;;;;;5071604;28;20492;-61
2022/04/26 15:23:35;;;;;;;2.67;1.00;;;22.00;41.90;;;;;;5071126;28;20107;-60
2022/04/26 15:26:06;;;;;;;2.67;1.20;;;22.10;42.10;;;;;;5073624;28;20108;-61
2022/04/26 15:28:33;;;;;;;5.15;1.38;;;22.10;42.00;;;;;;5075487;28;20025;-60
2022/04/26 15:30:59;;;;;;;3.03;1.48;;;22.10;42.00;;;;;;5075388;28;20107;-61
2022/04/26 15:33:25;;;;;;;1.58;0.95;;;22.20;42.20;;;;;;5075816;28;20099;-60
2022/04/26 15:35:51;;;;;;;2.63;1.55;;;22.30;42.30;;;;;;5073976;28;20389;-61
2022/04/26 15:38:17;;;;;;;3.38;1.20;;;22.40;41.90;;;;;;5074386;28;20024;-61
2022/04/26 15:40:47;;;;;;;1.83;1.00;;;22.40;41.80;;;;;;5075047;28;20490;-61
2022/04/26 15:43:15;;;;;;;4.13;1.08;;;22.40;41.90;;;;;;5075182;28;20025;-61
2022/04/26 15:45:43;;;;;;;3.10;1.00;;;22.40;42.50;;;;;;5073935;28;20024;-61
2022/04/26 15:48:08;;;;;;;3.28;1.02;;;22.50;42.00;;;;;;5075478;28;20043;-61
2022/04/26 15:50:34;;;;;;;2.83;1.40;;;22.50;42.10;;;;;;5075206;28;20468;-61
2022/04/26 15:53:00;;;;;;;1.20;1.00;;;22.50;42.00;;;;;;5075153;28;20029;-61
2022/04/26 15:55:26;;;;;;;1.73;0.93;;;22.40;42.20;;;;;;5073252;28;20028;-61
2022/04/26 15:57:53;;;;;;;3.50;1.42;;;22.30;42.10;;;;;;5067882;28;20027;-61
2022/04/26 16:00:20;;;;;;;2.00;1.15;;;22.20;41.90;;;;;;5073070;28;20027;-61
2022/04/26 16:02:51;;;;;;;2.45;1.30;;;22.00;41.80;;;;;;5073314;28;20016;-61
2022/04/26 16:05:17;;;;;;;3.08;1.20;;;21.90;41.70;;;;;;5070202;28;20515;-61
2022/04/26 16:07:43;;;;;;;2.13;0.80;;;21.80;42.00;;;;;;5067107;28;20029;-61
2022/04/26 16:21:05;;;;;;;1.30;0.85;;;21.00;41.50;;;;;;5067544;28;20396;-60
2022/04/26 16:23:30;;;;;;;1.48;0.80;;;20.90;41.90;;;;;;5067876;28;20024;-60
2022/04/26 16:26:02;;;;;;;2.67;1.02;;;20.80;42.00;;;;;;5073507;28;20020;-60
2022/04/26 16:28:31;;;;;;;3.63;1.02;;;20.70;42.10;;;;;;5063006;28;20017;-60
2022/04/26 16:30:57;;;;;;;;;;;20.70;42.20;;;;;;5067195;28;20024;-60
2022/04/26 16:33:22;;;;;;;2.45;1.38;;;20.60;42.30;;;;;;5077701;28;19916;-60
2022/04/26 16:35:48;;;;;;;1.50;0.95;;;20.50;42.30;;;;;;5070312;28;20353;-60
2022/04/26 16:38:17;;;;;;;2.25;0.90;;;20.40;42.30;;;;;;5078153;28;20064;-60
2022/04/26 16:40:46;;;;;;;1.98;1.38;;;20.30;42.00;;;;;;5061597;28;20025;-60
2022/04/26 16:43:16;;;;;;;2.47;1.55;;;20.00;41.90;;;;;;5073145;28;20090;-60
2022/04/26 16:45:42;;;;;;;2.55;0.90;;;19.90;42.00;;;;;;5084185;28;20024;-62
2022/04/26 16:48:07;;;;;;;1.52;1.08;;;19.90;42.30;;;;;;5077214;28;20086;-60
2022/04/26 16:50:33;;;;;;;2.55;1.30;;;19.80;42.50;;;;;;5080861;28;20012;-60
2022/04/26 16:53:00;;;;;;;2.38;1.10;;;19.90;42.10;;;;;;5085928;28;20544;-60
2022/04/26 16:55:27;;;;;;;2.78;0.93;;;19.60;41.90;;;;;;5084198;28;20025;-60
2022/04/26 16:57:53;;;;;;;2.15;1.38;;;19.50;42.00;;;;;;5089767;28;20420;-60
2022/04/26 17:00:19;;;;;;;2.83;1.00;;;19.30;42.00;;;;;;5089408;28;20058;-60
2022/04/26 17:02:45;;;;;;;2.20;0.90;;;19.00;42.00;;;;;;5081018;28;20021;-60
2022/04/26 17:05:14;;;;;;;1.75;0.98;;;19.00;42.20;;;;;;5085099;28;20039;-60
2022/04/26 17:07:39;;;;;;;1.63;0.80;;;18.80;42.30;;;;;;5080537;28;20495;-60
2022/04/26 17:10:06;;;;;;;2.38;1.00;;;18.70;42.60;;;;;;5078496;28;20094;-60
2022/04/26 17:12:33;;;;;;;1.20;0.90;;;18.70;42.70;;;;;;5083646;28;20016;-60
2022/04/26 17:15:04;;;;;;;1.88;0.90;;;18.70;42.70;;;;;;5073045;28;20334;-61
2022/04/26 17:17:31;;;;;;;1.50;0.80;;;18.60;42.90;;;;;;5083594;28;20044;-60